createdAt,value
2022-09-21T00:02:02.363Z,8.00
2022-09-21T00:04:32.025Z,8.07
2022-09-21T00:07:01.669Z,5.00
2022-09-21T00:09:31.323Z,6.30
2022-09-21T00:12:03.923Z,5.23
2022-09-21T00:14:34.039Z,3.97
2022-09-21T00:17:03.723Z,3.23
2022-09-21T00:19:33.357Z,3.00
2022-09-21T00:22:02.943Z,2.90
2022-09-21T00:24:32.577Z,3.10
2022-09-21T00:27:04.783Z,4.10
2022-09-21T00:29:35.510Z,3.83
2022-09-21T00:32:05.150Z,3.80
2022-09-21T00:34:34.929Z,3.40
2022-09-21T00:37:04.527Z,2.77
2022-09-21T00:39:34.196Z,3.07
2022-09-21T00:42:12.439Z,3.10
2022-09-21T00:44:42.089Z,3.87
2022-09-21T00:47:15.703Z,3.13
2022-09-21T00:49:49.549Z,3.23
2022-09-21T00:52:21.185Z,2.80
2022-09-21T00:54:54.968Z,3.50
2022-09-21T00:57:31.001Z,2.67
2022-09-21T01:00:04.505Z,2.63
2022-09-21T01:02:34.726Z,3.03
2022-09-21T01:05:06.273Z,4.27
2022-09-21T01:07:39.402Z,3.90
2022-09-21T01:10:14.040Z,5.10
2022-09-21T01:13:04.463Z,3.13
2022-09-21T01:15:42.395Z,3.40
2022-09-21T01:18:18.104Z,2.73
2022-09-21T01:21:20.112Z,3.20
2022-09-21T01:24:11.059Z,2.50
2022-09-21T01:26:59.093Z,4.20
2022-09-21T01:29:38.376Z,2.43
2022-09-21T01:32:14.496Z,2.40
2022-09-21T01:34:51.704Z,2.50
2022-09-21T01:37:27.447Z,2.80
2022-09-21T01:40:02.406Z,4.70
2022-09-21T01:42:34.584Z,6.10
2022-09-21T01:45:10.548Z,3.27
2022-09-21T01:47:43.905Z,4.50
2022-09-21T01:50:15.802Z,3.40
2022-09-21T01:52:50.287Z,3.50
2022-09-21T01:55:28.544Z,2.40
2022-09-21T01:58:02.679Z,2.63
2022-09-21T02:00:37.843Z,2.47
2022-09-21T02:03:12.320Z,1.90
2022-09-21T02:05:42.158Z,2.57
2022-09-21T02:08:12.958Z,2.70
2022-09-21T02:10:47.893Z,2.13
2022-09-21T02:13:18.997Z,2.20
2022-09-21T02:16:05.967Z,4.93
2022-09-21T02:18:46.703Z,1.70
2022-09-21T02:21:24.269Z,2.10
2022-09-21T02:24:03.900Z,1.90
2022-09-21T02:26:41.740Z,1.70
2022-09-21T02:29:20.367Z,1.93
2022-09-21T02:32:02.169Z,1.90
2022-09-21T02:34:38.484Z,1.70
2022-09-21T02:37:14.789Z,5.67
2022-09-21T02:39:50.539Z,1.87
2022-09-21T02:42:26.829Z,2.20
2022-09-21T02:45:02.339Z,1.70
2022-09-21T02:47:39.778Z,2.07
2022-09-21T02:50:15.623Z,1.60
2022-09-21T02:52:47.010Z,2.00
2022-09-21T02:55:19.836Z,1.50
2022-09-21T02:57:50.953Z,1.70
2022-09-21T03:00:20.986Z,1.20
2022-09-21T03:02:53.224Z,1.93
2022-09-21T03:05:23.064Z,4.90
2022-09-21T03:07:52.701Z,2.30
2022-09-21T03:10:22.347Z,1.50
2022-09-21T03:12:52.012Z,4.90
2022-09-21T03:15:21.664Z,1.70
2022-09-21T03:17:53.923Z,1.93
2022-09-21T03:20:23.543Z,2.20
2022-09-21T03:22:53.213Z,2.80
2022-09-21T03:25:22.986Z,3.70
2022-09-21T03:27:53.855Z,3.67
2022-09-21T03:30:23.664Z,2.00
2022-09-21T03:32:56.790Z,2.33
2022-09-21T03:35:28.080Z,2.27
2022-09-21T03:37:57.977Z,1.87
2022-09-21T03:40:27.705Z,1.87
2022-09-21T03:42:57.866Z,1.60
2022-09-21T03:45:27.645Z,1.97
2022-09-21T03:48:01.807Z,2.30
2022-09-21T03:50:32.062Z,2.07
2022-09-21T03:53:01.972Z,3.03
2022-09-21T03:55:31.730Z,1.70
2022-09-21T03:58:01.518Z,1.97
2022-09-21T04:00:32.561Z,1.87
2022-09-21T04:03:05.016Z,2.37
2022-09-21T04:05:34.653Z,2.03
2022-09-21T04:08:04.784Z,1.87
2022-09-21T04:10:35.496Z,2.30
2022-09-21T04:13:06.592Z,3.63
2022-09-21T04:15:36.748Z,1.93
2022-09-21T04:18:09.472Z,1.73
2022-09-21T04:20:39.099Z,3.43
2022-09-21T04:23:09.373Z,2.03
2022-09-21T04:25:39.032Z,1.70
2022-09-21T04:28:08.773Z,2.20
2022-09-21T04:30:38.441Z,1.73
2022-09-21T04:33:10.648Z,2.63
2022-09-21T04:35:40.465Z,3.63
2022-09-21T04:38:10.084Z,1.90
2022-09-21T04:40:39.776Z,2.27
2022-09-21T04:43:09.649Z,2.50
2022-09-21T04:45:39.524Z,2.43
2022-09-21T04:48:12.048Z,2.30
2022-09-21T04:50:41.688Z,4.43
2022-09-21T04:53:12.463Z,4.60
2022-09-21T04:55:42.100Z,3.73
2022-09-21T04:58:11.715Z,4.17
2022-09-21T05:00:41.353Z,3.30
2022-09-21T05:03:13.592Z,2.50
2022-09-21T05:05:49.845Z,2.70
2022-09-21T05:08:40.648Z,2.70
2022-09-21T05:11:09.143Z,2.73
2022-09-21T05:13:39.096Z,2.40
2022-09-21T05:16:09.273Z,2.73
2022-09-21T05:18:41.513Z,6.73
2022-09-21T05:21:13.964Z,5.80
2022-09-21T05:23:43.945Z,4.03
2022-09-21T05:26:13.577Z,3.03
2022-09-21T05:28:43.873Z,2.93
2022-09-21T05:31:28.345Z,8.77
2022-09-21T05:34:06.461Z,5.63
2022-09-21T05:36:44.905Z,3.60
2022-09-21T05:39:15.370Z,3.90
2022-09-21T05:41:45.704Z,4.73
2022-09-21T05:44:17.096Z,3.50
2022-09-21T05:46:56.031Z,8.00
2022-09-21T05:49:36.686Z,3.40
2022-09-21T05:52:14.174Z,4.83
2022-09-21T05:54:59.757Z,3.00
2022-09-21T05:57:42.334Z,2.23
2022-09-21T06:00:18.874Z,7.83
2022-09-21T06:03:17.575Z,13.70
2022-09-21T06:05:50.252Z,7.50
2022-09-21T06:08:19.932Z,9.20
2022-09-21T06:10:49.900Z,10.43
2022-09-21T06:13:19.953Z,7.27
2022-09-21T06:15:49.881Z,6.20
2022-09-21T06:18:19.540Z,6.47
2022-09-21T06:20:51.741Z,5.57
2022-09-21T06:23:21.607Z,7.13
2022-09-21T06:25:58.214Z,10.60
2022-09-21T06:28:29.799Z,5.50
2022-09-21T06:31:00.847Z,4.90
2022-09-21T06:33:31.184Z,8.53
2022-09-21T06:36:03.790Z,11.77
2022-09-21T06:38:35.321Z,6.50
2022-09-21T06:41:06.024Z,5.87
2022-09-21T06:43:36.080Z,8.20
2022-09-21T06:46:06.756Z,9.77
2022-09-21T06:48:37.586Z,8.57
2022-09-21T06:51:10.083Z,12.40
2022-09-21T06:53:39.800Z,12.17
2022-09-21T06:56:11.305Z,10.60
2022-09-21T06:58:41.289Z,11.60
2022-09-21T07:01:13.834Z,11.00
2022-09-21T07:03:45.362Z,11.47
2022-09-21T07:06:17.681Z,19.63
2022-09-21T07:11:39.098Z,16.90
2022-09-21T07:14:08.780Z,19.27
2022-09-21T07:16:38.531Z,20.47
2022-09-21T07:19:11.930Z,19.77
2022-09-21T07:21:44.516Z,20.73
2022-09-21T07:24:15.101Z,21.80
2022-09-21T07:26:44.901Z,22.93
2022-09-21T07:29:14.637Z,26.63
2022-09-21T07:31:46.162Z,29.83
2022-09-21T07:34:17.873Z,27.87
2022-09-21T07:36:51.285Z,28.30
2022-09-21T07:39:21.055Z,36.40
2022-09-21T07:41:53.912Z,26.20
2022-09-21T07:44:23.609Z,26.97
2022-09-21T07:46:54.556Z,27.03
2022-09-21T07:49:25.261Z,31.47
2022-09-21T07:52:02.882Z,31.27
2022-09-21T07:54:35.099Z,28.90
2022-09-21T07:57:17.287Z,27.40
2022-09-21T07:59:48.309Z,28.33
2022-09-21T08:02:19.038Z,28.63
2022-09-21T08:04:49.888Z,32.40
2022-09-21T08:07:23.313Z,32.00
2022-09-21T08:09:53.949Z,34.30
2022-09-21T08:12:24.720Z,29.07
2022-09-21T08:14:55.397Z,30.70
2022-09-21T08:17:27.403Z,32.17
2022-09-21T08:19:57.081Z,29.57
2022-09-21T08:22:29.380Z,29.67
2022-09-21T08:25:01.101Z,27.70
2022-09-21T08:27:31.904Z,23.87
2022-09-21T08:30:06.195Z,23.97
2022-09-21T08:32:50.984Z,32.83
2022-09-21T08:35:21.826Z,20.00
2022-09-21T08:37:56.440Z,19.97
2022-09-21T08:40:26.372Z,18.17
2022-09-21T08:43:02.895Z,15.63
2022-09-21T08:45:38.318Z,15.73
2022-09-21T08:48:14.309Z,20.77
2022-09-21T08:50:47.109Z,18.23
2022-09-21T08:53:24.193Z,17.03
2022-09-21T08:55:54.918Z,20.93
2022-09-21T08:58:27.613Z,18.47
2022-09-21T09:01:13.557Z,16.20
2022-09-21T09:04:05.220Z,17.53
2022-09-21T09:06:48.141Z,14.77
2022-09-21T09:09:32.530Z,10.13
2022-09-21T09:12:14.221Z,16.27
2022-09-21T09:15:02.212Z,13.07
2022-09-21T09:17:47.844Z,11.40
2022-09-21T09:20:22.270Z,8.53
2022-09-21T09:22:57.549Z,10.40
2022-09-21T09:25:35.023Z,9.20
2022-09-21T09:28:16.315Z,15.07
2022-09-21T09:30:47.964Z,13.07
2022-09-21T09:33:24.750Z,11.93
2022-09-21T09:36:04.644Z,10.10
2022-09-21T09:38:40.028Z,11.47
2022-09-21T09:41:44.605Z,11.00
2022-09-21T09:44:29.310Z,13.15
2022-09-21T09:47:12.084Z,9.43
2022-09-21T09:50:01.099Z,19.97
2022-09-21T09:52:30.888Z,10.63
2022-09-21T09:55:03.279Z,17.10
2022-09-21T09:57:36.684Z,9.57
2022-09-21T10:00:12.497Z,22.63
2022-09-21T10:02:50.038Z,11.27
2022-09-21T10:05:26.737Z,11.73
2022-09-21T10:07:57.469Z,15.03
2022-09-21T10:10:35.084Z,13.37
2022-09-21T10:13:16.930Z,14.83
2022-09-21T10:15:51.109Z,10.80
2022-09-21T10:18:26.733Z,12.53
2022-09-21T10:21:02.862Z,7.20
2022-09-21T10:23:35.174Z,16.73
2022-09-21T10:26:07.921Z,9.63
2022-09-21T10:28:40.631Z,4.00
2022-09-21T10:31:14.420Z,9.93
2022-09-21T10:33:53.196Z,14.70
2022-09-21T10:36:30.027Z,7.60
2022-09-21T10:39:12.272Z,6.17
2022-09-21T10:41:42.327Z,8.77
2022-09-21T10:44:22.866Z,8.30
2022-09-21T10:49:30.528Z,5.73
2022-09-21T10:52:02.194Z,6.43
2022-09-21T10:54:35.785Z,11.87
2022-09-21T10:57:12.536Z,10.33
2022-09-21T10:59:44.956Z,8.67
2022-09-21T11:02:38.658Z,8.33
2022-09-21T11:05:18.687Z,8.80
2022-09-21T11:08:02.033Z,6.70
2022-09-21T11:10:41.131Z,9.83
2022-09-21T11:13:26.369Z,6.90
2022-09-21T11:16:10.711Z,10.40
2022-09-21T11:18:49.757Z,5.90
2022-09-21T11:21:30.282Z,11.57
2022-09-21T11:24:07.653Z,11.50
2022-09-21T11:29:45.976Z,8.40
2022-09-21T11:32:38.139Z,12.30
2022-09-21T11:35:25.067Z,10.50
2022-09-21T11:38:06.987Z,12.40
2022-09-21T11:40:56.919Z,8.80
2022-09-21T11:43:41.948Z,9.80
2022-09-21T11:46:23.154Z,10.27
2022-09-21T11:49:15.897Z,4.50
2022-09-21T11:52:02.811Z,6.50
2022-09-21T11:54:57.644Z,9.50
2022-09-21T11:57:31.188Z,7.60
2022-09-21T12:00:16.117Z,5.53
2022-09-21T12:03:22.094Z,5.40
2022-09-21T12:06:08.784Z,8.03
2022-09-21T12:09:01.599Z,11.73
2022-09-21T12:11:40.245Z,20.80
2022-09-21T12:14:22.659Z,9.30
2022-09-21T12:17:00.659Z,9.67
2022-09-21T12:19:38.910Z,4.77
2022-09-21T12:22:17.761Z,8.45
2022-09-21T12:24:53.540Z,5.27
2022-09-21T12:27:30.017Z,8.93
2022-09-21T12:30:05.604Z,7.87
2022-09-21T12:32:50.311Z,5.77
2022-09-21T12:35:30.709Z,12.83
2022-09-21T12:38:07.882Z,9.93
2022-09-21T12:40:42.495Z,4.43
2022-09-21T12:43:31.194Z,8.87
2022-09-21T12:46:05.038Z,8.23
2022-09-21T12:48:38.980Z,6.63
2022-09-21T12:51:16.743Z,6.47
2022-09-21T12:53:53.209Z,4.27
2022-09-21T12:56:40.463Z,6.70
2022-09-21T12:59:24.589Z,7.70
2022-09-21T13:01:57.868Z,3.87
2022-09-21T13:04:38.661Z,6.20
2022-09-21T13:07:32.951Z,6.43
2022-09-21T13:10:18.298Z,7.63
2022-09-21T13:12:53.080Z,4.90
2022-09-21T13:15:29.995Z,5.73
2022-09-21T13:18:05.649Z,7.53
2022-09-21T13:20:40.229Z,7.27
2022-09-21T13:23:19.229Z,10.33
2022-09-21T13:26:02.839Z,6.27
2022-09-21T13:29:07.709Z,7.50
2022-09-21T13:31:58.048Z,5.93
2022-09-21T13:34:30.515Z,7.40
2022-09-21T13:37:36.091Z,6.00
2022-09-21T13:40:40.814Z,7.30
2022-09-21T13:43:47.014Z,8.60
2022-09-21T13:46:46.741Z,7.27
2022-09-21T13:49:23.048Z,5.47
2022-09-21T13:52:00.620Z,4.30
2022-09-21T13:54:33.938Z,4.47
2022-09-21T13:57:09.739Z,6.47
2022-09-21T13:59:43.661Z,3.80
2022-09-21T14:02:27.914Z,3.20
2022-09-21T14:04:58.698Z,6.10
2022-09-21T14:07:33.091Z,6.67
2022-09-21T14:10:06.584Z,8.40
2022-09-21T14:12:44.461Z,8.43
2022-09-21T14:15:39.331Z,6.27
2022-09-21T14:18:22.401Z,5.50
2022-09-21T14:21:22.223Z,4.07
2022-09-21T14:24:21.888Z,5.27
2022-09-21T14:27:03.637Z,10.70
2022-09-21T14:29:42.094Z,9.97
2022-09-21T14:32:21.231Z,6.80
2022-09-21T14:34:53.493Z,6.07
2022-09-21T14:37:32.365Z,9.40
2022-09-21T14:40:05.931Z,3.90
2022-09-21T14:42:37.088Z,7.63
2022-09-21T14:45:07.745Z,4.30
2022-09-21T14:47:58.707Z,3.20
2022-09-21T14:50:36.131Z,9.90
2022-09-21T14:53:29.401Z,8.10
2022-09-21T14:56:21.151Z,7.70
2022-09-21T14:59:07.639Z,8.93
2022-09-21T15:01:42.183Z,5.13
2022-09-21T15:04:31.891Z,3.00
2022-09-21T15:07:26.293Z,3.27
2022-09-21T15:10:21.555Z,5.73
2022-09-21T15:13:00.617Z,6.03
2022-09-21T15:15:40.671Z,3.73
2022-09-21T15:18:20.511Z,8.00
2022-09-21T15:21:03.638Z,4.90
2022-09-21T15:23:40.166Z,3.80
2022-09-21T15:26:19.328Z,10.53
2022-09-21T15:29:08.760Z,7.03
2022-09-21T15:31:42.671Z,6.00
2022-09-21T15:34:15.455Z,5.13
2022-09-21T15:36:49.156Z,40.03
2022-09-21T15:39:28.054Z,38.57
2022-09-21T15:42:23.245Z,52.73
2022-09-21T15:45:06.577Z,42.87
2022-09-21T15:47:36.985Z,9.00
2022-09-21T15:50:08.323Z,3.60
2022-09-21T15:52:45.445Z,4.37
2022-09-21T15:55:21.588Z,7.93
2022-09-21T15:57:53.399Z,9.10
2022-09-21T16:00:26.961Z,5.60
2022-09-21T16:03:04.938Z,4.53
2022-09-21T16:05:46.762Z,5.47
2022-09-21T16:08:33.107Z,5.57
2022-09-21T16:11:19.011Z,4.00
2022-09-21T16:14:14.319Z,5.50
2022-09-21T16:17:09.686Z,3.53
2022-09-21T16:19:44.601Z,4.40
2022-09-21T16:22:15.983Z,5.40
2022-09-21T16:24:54.254Z,5.73
2022-09-21T16:27:26.367Z,10.50
2022-09-21T16:29:58.593Z,5.93
2022-09-21T16:32:33.846Z,6.97
2022-09-21T16:35:27.950Z,3.17
2022-09-21T16:38:00.132Z,4.57
2022-09-21T16:40:32.715Z,6.93
2022-09-21T16:43:05.405Z,7.03
2022-09-21T16:45:35.246Z,6.23
2022-09-21T16:48:08.476Z,4.77
2022-09-21T16:50:38.147Z,6.37
2022-09-21T16:53:07.771Z,6.00
2022-09-21T16:55:40.306Z,7.43
2022-09-21T16:58:11.632Z,7.40
2022-09-21T17:00:44.493Z,7.90
2022-09-21T17:03:16.308Z,7.97
2022-09-21T17:05:46.020Z,9.73
2022-09-21T17:08:17.061Z,7.30
2022-09-21T17:10:49.275Z,6.77
2022-09-21T17:13:20.586Z,7.70
2022-09-21T17:15:52.166Z,6.60
2022-09-21T17:18:21.942Z,8.33
2022-09-21T17:20:51.573Z,6.83
2022-09-21T17:23:27.591Z,8.67
2022-09-21T17:26:00.082Z,8.63
2022-09-21T17:28:29.968Z,7.27
2022-09-21T17:30:59.727Z,4.40
2022-09-21T17:33:29.955Z,11.00
2022-09-21T17:35:59.652Z,9.13
2022-09-21T17:38:29.266Z,10.07
2022-09-21T17:41:02.708Z,10.70
2022-09-21T17:43:40.608Z,10.73
2022-09-21T17:46:19.701Z,9.83
2022-09-21T17:48:53.590Z,16.40
2022-09-21T17:51:36.152Z,31.00
2022-09-21T17:54:06.693Z,18.67
2022-09-21T17:56:48.885Z,11.40
2022-09-21T17:59:29.518Z,15.70
2022-09-21T18:02:01.052Z,12.27
2022-09-21T18:04:35.065Z,16.30
2022-09-21T18:07:05.546Z,12.93
2022-09-21T18:09:36.053Z,8.30
2022-09-21T18:12:38.033Z,8.40
2022-09-21T18:15:17.259Z,17.93
2022-09-21T18:17:59.388Z,6.77
2022-09-21T18:20:44.026Z,5.70
2022-09-21T18:23:25.441Z,9.70
2022-09-21T18:25:58.821Z,11.87
2022-09-21T18:28:40.492Z,24.07
2022-09-21T18:31:25.313Z,16.70
2022-09-21T18:34:05.789Z,18.87
2022-09-21T18:36:43.406Z,33.80
2022-09-21T18:39:26.423Z,15.87
2022-09-21T18:42:16.415Z,11.13
2022-09-21T18:44:53.342Z,10.57
2022-09-21T18:47:29.359Z,9.80
2022-09-21T18:50:10.260Z,8.03
2022-09-21T18:52:49.770Z,13.57
2022-09-21T18:55:27.957Z,15.53
2022-09-21T18:58:03.432Z,6.43
2022-09-21T19:00:38.694Z,20.30
2022-09-21T19:03:19.116Z,11.03
2022-09-21T19:06:00.554Z,6.63
2022-09-21T19:08:38.574Z,8.63
2022-09-21T19:11:23.148Z,8.83
2022-09-21T19:14:03.219Z,11.90
2022-09-21T19:16:38.023Z,19.53
2022-09-21T19:19:26.371Z,8.80
2022-09-21T19:22:04.336Z,10.70
2022-09-21T19:24:39.705Z,4.80
2022-09-21T19:27:21.519Z,14.17
2022-09-21T19:30:01.252Z,8.97
2022-09-21T19:32:39.630Z,13.03
2022-09-21T19:35:20.024Z,6.43
2022-09-21T19:37:50.363Z,10.33
2022-09-21T19:40:22.328Z,11.57
2022-09-21T19:43:20.758Z,8.87
2022-09-21T19:46:09.166Z,9.47
2022-09-21T19:48:45.829Z,9.77
2022-09-21T19:51:21.745Z,6.87
2022-09-21T19:54:10.401Z,8.10
2022-09-21T19:57:00.868Z,8.50
2022-09-21T19:59:48.365Z,10.10
2022-09-21T20:02:28.666Z,6.30
2022-09-21T20:05:08.260Z,8.57
2022-09-21T20:07:55.139Z,11.13
2022-09-21T20:10:52.353Z,8.70
2022-09-21T20:13:34.872Z,15.57
2022-09-21T20:16:24.213Z,5.30
2022-09-21T20:18:59.596Z,10.17
2022-09-21T20:21:40.371Z,6.83
2022-09-21T20:24:22.877Z,4.70
2022-09-21T20:26:53.825Z,4.47
2022-09-21T20:29:24.602Z,3.73
2022-09-21T20:31:56.584Z,4.97
2022-09-21T20:34:27.973Z,4.43
2022-09-21T20:37:00.716Z,5.53
2022-09-21T20:39:30.359Z,4.87
2022-09-21T20:42:00.041Z,3.63
2022-09-21T20:44:30.714Z,5.03
2022-09-21T20:47:01.483Z,5.07
2022-09-21T20:49:31.269Z,8.57
2022-09-21T20:52:03.981Z,4.60
2022-09-21T20:54:33.642Z,3.10
2022-09-21T20:57:05.377Z,4.60
2022-09-21T20:59:35.135Z,5.07
2022-09-21T21:02:08.036Z,5.53
2022-09-21T21:04:38.757Z,5.00
2022-09-21T21:07:11.355Z,6.63
2022-09-21T21:09:44.991Z,4.20
2022-09-21T21:12:18.065Z,9.70
2022-09-21T21:14:48.083Z,10.07
2022-09-21T21:17:17.692Z,9.93
2022-09-21T21:19:47.605Z,5.03
2022-09-21T21:22:19.882Z,10.33
2022-09-21T21:24:49.673Z,4.90
2022-09-21T21:27:21.050Z,10.03
2022-09-21T21:29:52.959Z,8.30
2022-09-21T21:32:25.258Z,12.63
2022-09-21T21:34:56.539Z,5.13
2022-09-21T21:37:29.702Z,8.47
2022-09-21T21:39:59.409Z,6.90
2022-09-21T21:42:29.610Z,7.20
2022-09-21T21:44:59.620Z,11.30
2022-09-21T21:47:44.619Z,6.70
2022-09-21T21:50:14.266Z,7.57
2022-09-21T21:52:47.034Z,7.80
2022-09-21T21:55:16.955Z,8.10
2022-09-21T21:57:46.579Z,7.90
2022-09-21T22:00:16.808Z,6.10
2022-09-21T22:02:46.443Z,7.53
2022-09-21T22:05:16.230Z,7.07
2022-09-21T22:07:49.021Z,7.00
2022-09-21T22:10:18.824Z,6.87
2022-09-21T22:12:48.505Z,7.97
2022-09-21T22:15:18.908Z,6.00
2022-09-21T22:17:48.514Z,6.37
2022-09-21T22:20:18.165Z,5.57
2022-09-21T22:22:50.335Z,6.60
2022-09-21T22:25:19.940Z,8.37
2022-09-21T22:27:49.627Z,5.73
2022-09-21T22:30:19.613Z,7.20
2022-09-21T22:32:50.712Z,5.80
2022-09-21T22:35:20.588Z,12.90
2022-09-21T22:37:54.617Z,6.47
2022-09-21T22:40:24.669Z,4.87
2022-09-21T22:42:54.341Z,4.00
2022-09-21T22:45:26.290Z,4.70
2022-09-21T22:47:55.935Z,5.70
2022-09-21T22:50:25.618Z,6.60
2022-09-21T22:52:57.834Z,3.23
2022-09-21T22:55:27.480Z,3.50
2022-09-21T22:57:57.071Z,5.30
2022-09-21T23:00:26.706Z,10.43
2022-09-21T23:02:57.485Z,4.33
2022-09-21T23:05:27.248Z,7.30
2022-09-21T23:07:59.746Z,7.03
2022-09-21T23:10:29.696Z,5.83
2022-09-21T23:12:59.352Z,5.37
2022-09-21T23:15:28.962Z,6.47
2022-09-21T23:17:58.588Z,3.80
2022-09-21T23:20:28.356Z,4.63
2022-09-21T23:23:00.535Z,5.60
2022-09-21T23:25:30.305Z,8.20
2022-09-21T23:28:00.560Z,9.23
2022-09-21T23:30:30.183Z,9.80
2022-09-21T23:32:59.815Z,9.07
2022-09-21T23:35:29.446Z,7.50
2022-09-21T23:38:02.206Z,5.40
2022-09-21T23:40:31.899Z,6.63
2022-09-21T23:43:01.567Z,6.73
2022-09-21T23:45:31.406Z,8.93
2022-09-21T23:48:01.085Z,6.23
2022-09-21T23:50:30.711Z,5.20
2022-09-21T23:53:03.380Z,6.60
2022-09-21T23:55:33.561Z,10.77
2022-09-21T23:58:03.157Z,7.87
